sensor_id;sensor_type;location;lat;lon;timestamp;P1;durP1;ratioP1;P2;durP2;ratioP2
13799;SDS011;6971;50.028;9.258;2023-05-07T00:02:03;2.87;;;2.67;;
13799;SDS011;6971;50.028;9.258;2023-05-07T00:07:04;4.53;;;2.83;;
13799;SDS011;6971;50.028;9.258;2023-05-07T00:12:04;3.83;;;2.77;;
13799;SDS011;6971;50.028;9.258;2023-05-07T00:17:05;3.63;;;2.73;;
13799;SDS011;6971;50.028;9.258;2023-05-07T00:22:05;3.93;;;2.50;;
13799;SDS011;6971;50.028;9.258;2023-05-07T00:27:05;3.33;;;2.70;;
13799;SDS011;6971;50.028;9.258;2023-05-07T00:32:06;4.27;;;2.63;;
13799;SDS011;6971;50.028;9.258;2023-05-07T00:37:06;4.10;;;2.93;;
13799;SDS011;6971;50.028;9.258;2023-05-07T00:42:09;2.83;;;2.63;;
13799;SDS011;6971;50.028;9.258;2023-05-07T00:47:10;3.37;;;2.73;;
13799;SDS011;6971;50.028;9.258;2023-05-07T00:52:11;4.07;;;2.30;;
13799;SDS011;6971;50.028;9.258;2023-05-07T00:57:14;2.70;;;1.97;;
13799;SDS011;6971;50.028;9.258;2023-05-07T01:02:14;2.80;;;2.33;;
13799;SDS011;6971;50.028;9.258;2023-05-07T01:07:15;2.30;;;2.10;;
13799;SDS011;6971;50.028;9.258;2023-05-07T01:12:15;3.17;;;2.17;;
13799;SDS011;6971;50.028;9.258;2023-05-07T01:17:16;4.63;;;2.93;;
13799;SDS011;6971;50.028;9.258;2023-05-07T01:22:17;2.50;;;2.30;;
13799;SDS011;6971;50.028;9.258;2023-05-07T01:27:31;3.60;;;2.30;;
13799;SDS011;6971;50.028;9.258;2023-05-07T01:32:35;2.53;;;2.00;;
13799;SDS011;6971;50.028;9.258;2023-05-07T01:37:40;2.30;;;2.10;;
13799;SDS011;6971;50.028;9.258;2023-05-07T01:42:41;2.37;;;2.17;;
13799;SDS011;6971;50.028;9.258;2023-05-07T01:47:43;2.63;;;2.43;;
13799;SDS011;6971;50.028;9.258;2023-05-07T01:52:44;4.53;;;2.57;;
13799;SDS011;6971;50.028;9.258;2023-05-07T01:57:44;2.00;;;1.90;;
13799;SDS011;6971;50.028;9.258;2023-05-07T02:02:44;5.87;;;2.37;;
13799;SDS011;6971;50.028;9.258;2023-05-07T02:07:45;3.73;;;2.20;;
13799;SDS011;6971;50.028;9.258;2023-05-07T02:12:45;4.83;;;2.43;;
13799;SDS011;6971;50.028;9.258;2023-05-07T02:17:59;6.03;;;2.30;;
13799;SDS011;6971;50.028;9.258;2023-05-07T02:23:04;3.20;;;2.40;;
13799;SDS011;6971;50.028;9.258;2023-05-07T02:28:04;3.47;;;2.40;;
13799;SDS011;6971;50.028;9.258;2023-05-07T02:33:04;4.00;;;2.27;;
13799;SDS011;6971;50.028;9.258;2023-05-07T02:38:06;2.33;;;2.13;;
13799;SDS011;6971;50.028;9.258;2023-05-07T02:43:06;2.73;;;2.53;;
13799;SDS011;6971;50.028;9.258;2023-05-07T02:48:07;2.90;;;2.70;;
13799;SDS011;6971;50.028;9.258;2023-05-07T02:53:07;3.90;;;2.77;;
13799;SDS011;6971;50.028;9.258;2023-05-07T02:58:08;2.90;;;2.43;;
13799;SDS011;6971;50.028;9.258;2023-05-07T03:03:10;6.27;;;3.10;;
13799;SDS011;6971;50.028;9.258;2023-05-07T03:08:11;4.77;;;2.80;;
13799;SDS011;6971;50.028;9.258;2023-05-07T03:13:12;3.00;;;2.70;;
13799;SDS011;6971;50.028;9.258;2023-05-07T03:18:12;4.20;;;3.07;;
13799;SDS011;6971;50.028;9.258;2023-05-07T03:23:12;3.20;;;2.90;;
13799;SDS011;6971;50.028;9.258;2023-05-07T03:28:13;5.07;;;3.10;;
13799;SDS011;6971;50.028;9.258;2023-05-07T03:33:13;3.67;;;3.37;;
13799;SDS011;6971;50.028;9.258;2023-05-07T03:38:13;3.50;;;3.10;;
13799;SDS011;6971;50.028;9.258;2023-05-07T03:43:14;4.33;;;3.80;;
13799;SDS011;6971;50.028;9.258;2023-05-07T03:48:14;4.33;;;3.63;;
13799;SDS011;6971;50.028;9.258;2023-05-07T03:53:14;3.97;;;3.40;;
13799;SDS011;6971;50.028;9.258;2023-05-07T03:58:15;3.80;;;3.50;;
13799;SDS011;6971;50.028;9.258;2023-05-07T04:03:16;4.47;;;4.10;;
13799;SDS011;6971;50.028;9.258;2023-05-07T04:08:16;4.57;;;4.17;;
13799;SDS011;6971;50.028;9.258;2023-05-07T04:13:17;6.70;;;4.37;;
13799;SDS011;6971;50.028;9.258;2023-05-07T04:18:17;5.07;;;4.10;;
13799;SDS011;6971;50.028;9.258;2023-05-07T04:23:17;4.43;;;4.03;;
13799;SDS011;6971;50.028;9.258;2023-05-07T04:28:20;5.07;;;4.53;;
13799;SDS011;6971;50.028;9.258;2023-05-07T04:33:21;5.77;;;4.83;;
13799;SDS011;6971;50.028;9.258;2023-05-07T04:38:21;5.27;;;4.87;;
13799;SDS011;6971;50.028;9.258;2023-05-07T04:43:23;5.20;;;4.70;;
13799;SDS011;6971;50.028;9.258;2023-05-07T04:48:24;4.80;;;4.30;;
13799;SDS011;6971;50.028;9.258;2023-05-07T04:53:24;6.53;;;4.93;;
13799;SDS011;6971;50.028;9.258;2023-05-07T04:58:25;4.90;;;4.50;;
13799;SDS011;6971;50.028;9.258;2023-05-07T05:03:25;5.83;;;5.33;;
13799;SDS011;6971;50.028;9.258;2023-05-07T05:08:27;5.97;;;5.40;;
13799;SDS011;6971;50.028;9.258;2023-05-07T05:13:30;5.03;;;4.60;;
13799;SDS011;6971;50.028;9.258;2023-05-07T05:18:30;5.50;;;4.43;;
13799;SDS011;6971;50.028;9.258;2023-05-07T05:23:30;6.13;;;5.53;;
13799;SDS011;6971;50.028;9.258;2023-05-07T05:28:31;6.00;;;5.50;;
13799;SDS011;6971;50.028;9.258;2023-05-07T05:33:31;7.57;;;5.07;;
13799;SDS011;6971;50.028;9.258;2023-05-07T05:38:31;6.17;;;5.23;;
13799;SDS011;6971;50.028;9.258;2023-05-07T05:43:32;6.17;;;5.63;;
13799;SDS011;6971;50.028;9.258;2023-05-07T05:48:32;6.03;;;5.20;;
13799;SDS011;6971;50.028;9.258;2023-05-07T05:53:33;6.00;;;5.50;;
13799;SDS011;6971;50.028;9.258;2023-05-07T05:58:33;6.53;;;5.87;;
13799;SDS011;6971;50.028;9.258;2023-05-07T06:03:33;6.37;;;5.23;;
13799;SDS011;6971;50.028;9.258;2023-05-07T06:08:34;6.70;;;6.10;;
13799;SDS011;6971;50.028;9.258;2023-05-07T06:13:34;6.87;;;5.63;;
13799;SDS011;6971;50.028;9.258;2023-05-07T06:18:34;6.43;;;5.83;;
13799;SDS011;6971;50.028;9.258;2023-05-07T06:23:36;6.93;;;5.47;;
13799;SDS011;6971;50.028;9.258;2023-05-07T06:28:36;6.53;;;5.90;;
13799;SDS011;6971;50.028;9.258;2023-05-07T06:33:36;8.10;;;5.90;;
13799;SDS011;6971;50.028;9.258;2023-05-07T06:38:36;6.50;;;5.90;;
13799;SDS011;6971;50.028;9.258;2023-05-07T06:43:37;6.67;;;6.07;;
13799;SDS011;6971;50.028;9.258;2023-05-07T06:48:37;6.93;;;6.17;;
13799;SDS011;6971;50.028;9.258;2023-05-07T06:53:37;6.43;;;5.90;;
13799;SDS011;6971;50.028;9.258;2023-05-07T06:58:38;7.80;;;6.83;;
13799;SDS011;6971;50.028;9.258;2023-05-07T07:03:38;12.17;;;8.80;;
13799;SDS011;6971;50.028;9.258;2023-05-07T07:08:41;9.93;;;6.93;;
13799;SDS011;6971;50.028;9.258;2023-05-07T07:13:41;6.20;;;5.70;;
13799;SDS011;6971;50.028;9.258;2023-05-07T07:18:43;6.80;;;6.20;;
13799;SDS011;6971;50.028;9.258;2023-05-07T07:23:43;7.30;;;6.60;;
13799;SDS011;6971;50.028;9.258;2023-05-07T07:28:44;9.70;;;6.70;;
13799;SDS011;6971;50.028;9.258;2023-05-07T07:33:45;7.20;;;6.20;;
13799;SDS011;6971;50.028;9.258;2023-05-07T07:38:45;8.00;;;7.20;;
13799;SDS011;6971;50.028;9.258;2023-05-07T07:43:45;7.13;;;6.50;;
13799;SDS011;6971;50.028;9.258;2023-05-07T07:48:48;8.10;;;6.57;;
13799;SDS011;6971;50.028;9.258;2023-05-07T07:53:49;9.50;;;7.93;;
13799;SDS011;6971;50.028;9.258;2023-05-07T07:58:49;6.73;;;6.07;;
13799;SDS011;6971;50.028;9.258;2023-05-07T08:03:50;9.13;;;7.93;;
13799;SDS011;6971;50.028;9.258;2023-05-07T08:08:55;9.27;;;8.33;;
13799;SDS011;6971;50.028;9.258;2023-05-07T08:13:55;6.47;;;5.87;;
13799;SDS011;6971;50.028;9.258;2023-05-07T08:18:56;9.00;;;5.90;;
13799;SDS011;6971;50.028;9.258;2023-05-07T08:23:56;5.90;;;5.40;;
13799;SDS011;6971;50.028;9.258;2023-05-07T08:28:57;6.10;;;5.50;;
13799;SDS011;6971;50.028;9.258;2023-05-07T08:33:57;6.07;;;5.47;;
13799;SDS011;6971;50.028;9.258;2023-05-07T08:38:59;5.70;;;5.20;;
13799;SDS011;6971;50.028;9.258;2023-05-07T08:43:59;6.13;;;5.63;;
13799;SDS011;6971;50.028;9.258;2023-05-07T08:49:02;6.43;;;5.73;;
13799;SDS011;6971;50.028;9.258;2023-05-07T08:54:03;6.43;;;5.73;;
13799;SDS011;6971;50.028;9.258;2023-05-07T08:59:05;6.17;;;5.67;;
13799;SDS011;6971;50.028;9.258;2023-05-07T09:04:07;6.43;;;5.80;;
13799;SDS011;6971;50.028;9.258;2023-05-07T09:09:09;6.40;;;5.80;;
13799;SDS011;6971;50.028;9.258;2023-05-07T09:14:09;6.03;;;5.53;;
13799;SDS011;6971;50.028;9.258;2023-05-07T09:19:09;5.97;;;5.43;;
13799;SDS011;6971;50.028;9.258;2023-05-07T09:24:10;5.63;;;5.13;;
13799;SDS011;6971;50.028;9.258;2023-05-07T09:29:10;6.33;;;5.73;;
13799;SDS011;6971;50.028;9.258;2023-05-07T09:34:10;6.03;;;5.13;;
13799;SDS011;6971;50.028;9.258;2023-05-07T09:39:11;5.80;;;5.20;;
13799;SDS011;6971;50.028;9.258;2023-05-07T09:44:12;7.37;;;5.27;;
13799;SDS011;6971;50.028;9.258;2023-05-07T09:49:20;8.00;;;5.63;;
13799;SDS011;6971;50.028;9.258;2023-05-07T09:54:21;5.60;;;4.93;;
13799;SDS011;6971;50.028;9.258;2023-05-07T09:59:22;5.57;;;5.07;;
13799;SDS011;6971;50.028;9.258;2023-05-07T10:04:22;5.80;;;5.30;;
13799;SDS011;6971;50.028;9.258;2023-05-07T10:09:26;5.47;;;5.00;;
13799;SDS011;6971;50.028;9.258;2023-05-07T10:14:26;7.20;;;5.07;;
13799;SDS011;6971;50.028;9.258;2023-05-07T10:19:28;6.93;;;4.80;;
13799;SDS011;6971;50.028;9.258;2023-05-07T10:24:31;5.03;;;4.63;;
13799;SDS011;6971;50.028;9.258;2023-05-07T10:34:59;5.07;;;4.57;;
13799;SDS011;6971;50.028;9.258;2023-05-07T10:40:02;13.87;;;8.57;;
13799;SDS011;6971;50.028;9.258;2023-05-07T10:45:12;29.00;;;15.90;;
13799;SDS011;6971;50.028;9.258;2023-05-07T11:05:26;4.23;;;3.80;;
13799;SDS011;6971;50.028;9.258;2023-05-07T11:15:48;3.60;;;3.30;;
13799;SDS011;6971;50.028;9.258;2023-05-07T11:20:53;3.83;;;2.93;;
13799;SDS011;6971;50.028;9.258;2023-05-07T11:25:58;3.30;;;3.07;;
13799;SDS011;6971;50.028;9.258;2023-05-07T11:30:59;3.10;;;2.90;;
13799;SDS011;6971;50.028;9.258;2023-05-07T11:36:01;4.07;;;3.17;;
13799;SDS011;6971;50.028;9.258;2023-05-07T11:41:02;3.17;;;2.87;;
13799;SDS011;6971;50.028;9.258;2023-05-07T11:46:06;2.93;;;2.63;;
13799;SDS011;6971;50.028;9.258;2023-05-07T11:51:08;3.97;;;3.20;;
13799;SDS011;6971;50.028;9.258;2023-05-07T11:56:09;3.07;;;2.77;;
13799;SDS011;6971;50.028;9.258;2023-05-07T12:01:12;3.03;;;2.73;;
13799;SDS011;6971;50.028;9.258;2023-05-07T12:06:14;5.73;;;3.53;;
13799;SDS011;6971;50.028;9.258;2023-05-07T12:11:16;3.70;;;3.27;;
13799;SDS011;6971;50.028;9.258;2023-05-07T12:16:25;4.23;;;3.40;;
13799;SDS011;6971;50.028;9.258;2023-05-07T12:21:26;3.50;;;3.20;;
13799;SDS011;6971;50.028;9.258;2023-05-07T12:26:26;3.77;;;3.47;;
13799;SDS011;6971;50.028;9.258;2023-05-07T12:31:26;4.00;;;3.70;;
13799;SDS011;6971;50.028;9.258;2023-05-07T12:36:27;3.63;;;3.33;;
13799;SDS011;6971;50.028;9.258;2023-05-07T12:41:56;3.13;;;2.83;;
13799;SDS011;6971;50.028;9.258;2023-05-07T12:47:01;3.30;;;3.00;;
13799;SDS011;6971;50.028;9.258;2023-05-07T12:52:01;3.00;;;2.70;;
13799;SDS011;6971;50.028;9.258;2023-05-07T13:02:06;4.90;;;3.20;;
13799;SDS011;6971;50.028;9.258;2023-05-07T13:07:08;5.40;;;3.53;;
13799;SDS011;6971;50.028;9.258;2023-05-07T13:12:08;3.60;;;3.30;;
13799;SDS011;6971;50.028;9.258;2023-05-07T13:17:09;3.63;;;3.33;;
13799;SDS011;6971;50.028;9.258;2023-05-07T13:22:09;3.00;;;2.70;;
13799;SDS011;6971;50.028;9.258;2023-05-07T13:27:10;3.20;;;2.90;;
13799;SDS011;6971;50.028;9.258;2023-05-07T13:32:11;3.33;;;2.20;;
13799;SDS011;6971;50.028;9.258;2023-05-07T13:37:11;2.93;;;2.67;;
13799;SDS011;6971;50.028;9.258;2023-05-07T13:42:11;3.03;;;2.40;;
13799;SDS011;6971;50.028;9.258;2023-05-07T13:47:14;3.90;;;2.70;;
13799;SDS011;6971;50.028;9.258;2023-05-07T13:52:15;2.60;;;2.40;;
13799;SDS011;6971;50.028;9.258;2023-05-07T13:57:16;2.90;;;2.37;;
13799;SDS011;6971;50.028;9.258;2023-05-07T14:02:16;2.70;;;2.40;;
13799;SDS011;6971;50.028;9.258;2023-05-07T14:07:17;4.03;;;2.50;;
13799;SDS011;6971;50.028;9.258;2023-05-07T14:12:17;2.97;;;2.60;;
13799;SDS011;6971;50.028;9.258;2023-05-07T14:17:17;3.20;;;2.90;;
13799;SDS011;6971;50.028;9.258;2023-05-07T14:22:18;4.83;;;2.63;;
13799;SDS011;6971;50.028;9.258;2023-05-07T14:27:20;2.80;;;2.60;;
13799;SDS011;6971;50.028;9.258;2023-05-07T14:32:21;4.57;;;3.20;;
13799;SDS011;6971;50.028;9.258;2023-05-07T14:37:22;3.00;;;2.70;;
13799;SDS011;6971;50.028;9.258;2023-05-07T14:42:24;3.17;;;2.87;;
13799;SDS011;6971;50.028;9.258;2023-05-07T14:47:25;3.27;;;2.93;;
13799;SDS011;6971;50.028;9.258;2023-05-07T14:52:25;2.80;;;2.50;;
13799;SDS011;6971;50.028;9.258;2023-05-07T14:57:26;2.70;;;2.50;;
13799;SDS011;6971;50.028;9.258;2023-05-07T15:02:26;3.17;;;2.63;;
13799;SDS011;6971;50.028;9.258;2023-05-07T15:07:27;2.70;;;2.43;;
13799;SDS011;6971;50.028;9.258;2023-05-07T15:12:28;3.37;;;2.97;;
13799;SDS011;6971;50.028;9.258;2023-05-07T15:17:28;3.73;;;2.63;;
13799;SDS011;6971;50.028;9.258;2023-05-07T15:22:28;3.10;;;2.80;;
13799;SDS011;6971;50.028;9.258;2023-05-07T15:27:30;5.53;;;3.07;;
13799;SDS011;6971;50.028;9.258;2023-05-07T15:32:30;3.23;;;2.97;;
13799;SDS011;6971;50.028;9.258;2023-05-07T15:37:31;3.53;;;3.23;;
13799;SDS011;6971;50.028;9.258;2023-05-07T15:42:31;7.00;;;5.83;;
13799;SDS011;6971;50.028;9.258;2023-05-07T15:47:33;3.83;;;3.47;;
13799;SDS011;6971;50.028;9.258;2023-05-07T15:52:36;3.87;;;3.23;;
13799;SDS011;6971;50.028;9.258;2023-05-07T15:57:38;3.07;;;2.87;;
13799;SDS011;6971;50.028;9.258;2023-05-07T16:02:38;2.87;;;2.67;;
13799;SDS011;6971;50.028;9.258;2023-05-07T16:07:39;3.83;;;3.30;;
13799;SDS011;6971;50.028;9.258;2023-05-07T16:12:39;4.33;;;2.80;;
13799;SDS011;6971;50.028;9.258;2023-05-07T16:17:40;3.60;;;3.00;;
13799;SDS011;6971;50.028;9.258;2023-05-07T16:22:40;3.10;;;2.80;;
13799;SDS011;6971;50.028;9.258;2023-05-07T16:27:41;3.10;;;2.63;;
13799;SDS011;6971;50.028;9.258;2023-05-07T16:32:41;3.33;;;2.30;;
13799;SDS011;6971;50.028;9.258;2023-05-07T16:37:42;2.97;;;2.30;;
13799;SDS011;6971;50.028;9.258;2023-05-07T16:42:42;3.30;;;2.60;;
13799;SDS011;6971;50.028;9.258;2023-05-07T16:47:42;2.57;;;2.37;;
13799;SDS011;6971;50.028;9.258;2023-05-07T16:52:43;2.40;;;2.20;;
13799;SDS011;6971;50.028;9.258;2023-05-07T16:57:43;2.33;;;2.13;;
13799;SDS011;6971;50.028;9.258;2023-05-07T17:02:43;3.10;;;2.80;;
13799;SDS011;6971;50.028;9.258;2023-05-07T17:07:45;4.13;;;3.00;;
13799;SDS011;6971;50.028;9.258;2023-05-07T17:12:46;4.20;;;2.93;;
13799;SDS011;6971;50.028;9.258;2023-05-07T17:17:46;3.10;;;2.80;;
13799;SDS011;6971;50.028;9.258;2023-05-07T17:22:46;4.90;;;3.20;;
13799;SDS011;6971;50.028;9.258;2023-05-07T17:27:47;3.90;;;3.50;;
13799;SDS011;6971;50.028;9.258;2023-05-07T17:32:47;3.23;;;2.93;;
13799;SDS011;6971;50.028;9.258;2023-05-07T17:37:48;7.13;;;2.97;;
13799;SDS011;6971;50.028;9.258;2023-05-07T17:42:51;3.47;;;2.97;;
13799;SDS011;6971;50.028;9.258;2023-05-07T17:47:51;4.07;;;3.10;;
13799;SDS011;6971;50.028;9.258;2023-05-07T17:52:52;3.63;;;2.50;;
13799;SDS011;6971;50.028;9.258;2023-05-07T17:57:52;4.03;;;3.00;;
13799;SDS011;6971;50.028;9.258;2023-05-07T18:02:52;2.43;;;2.20;;
13799;SDS011;6971;50.028;9.258;2023-05-07T18:07:53;2.60;;;2.40;;
13799;SDS011;6971;50.028;9.258;2023-05-07T18:12:54;2.73;;;2.53;;
13799;SDS011;6971;50.028;9.258;2023-05-07T18:17:57;3.17;;;2.87;;
13799;SDS011;6971;50.028;9.258;2023-05-07T18:22:57;4.80;;;3.83;;
13799;SDS011;6971;50.028;9.258;2023-05-07T18:27:58;6.27;;;3.00;;
13799;SDS011;6971;50.028;9.258;2023-05-07T18:32:58;6.77;;;6.03;;
13799;SDS011;6971;50.028;9.258;2023-05-07T18:37:58;5.03;;;3.20;;
13799;SDS011;6971;50.028;9.258;2023-05-07T18:42:59;5.13;;;3.30;;
13799;SDS011;6971;50.028;9.258;2023-05-07T18:48:05;3.60;;;3.30;;
13799;SDS011;6971;50.028;9.258;2023-05-07T18:53:06;2.77;;;2.57;;
13799;SDS011;6971;50.028;9.258;2023-05-07T18:58:07;3.90;;;3.43;;
13799;SDS011;6971;50.028;9.258;2023-05-07T19:03:07;4.50;;;3.50;;
13799;SDS011;6971;50.028;9.258;2023-05-07T19:08:08;9.47;;;4.23;;
13799;SDS011;6971;50.028;9.258;2023-05-07T19:13:08;6.83;;;3.27;;
13799;SDS011;6971;50.028;9.258;2023-05-07T19:18:08;3.93;;;3.43;;
13799;SDS011;6971;50.028;9.258;2023-05-07T19:23:09;3.60;;;2.90;;
13799;SDS011;6971;50.028;9.258;2023-05-07T19:28:10;5.13;;;2.90;;
13799;SDS011;6971;50.028;9.258;2023-05-07T19:33:10;4.97;;;3.10;;
13799;SDS011;6971;50.028;9.258;2023-05-07T19:38:11;2.97;;;2.70;;
13799;SDS011;6971;50.028;9.258;2023-05-07T19:43:11;6.23;;;3.07;;
13799;SDS011;6971;50.028;9.258;2023-05-07T19:48:11;3.33;;;2.97;;
13799;SDS011;6971;50.028;9.258;2023-05-07T19:53:12;4.10;;;3.80;;
13799;SDS011;6971;50.028;9.258;2023-05-07T19:58:13;3.40;;;3.10;;
13799;SDS011;6971;50.028;9.258;2023-05-07T20:03:16;4.53;;;3.50;;
13799;SDS011;6971;50.028;9.258;2023-05-07T20:08:17;4.07;;;3.17;;
13799;SDS011;6971;50.028;9.258;2023-05-07T20:13:18;3.47;;;2.90;;
13799;SDS011;6971;50.028;9.258;2023-05-07T20:18:18;3.73;;;3.43;;
13799;SDS011;6971;50.028;9.258;2023-05-07T20:23:18;3.07;;;2.80;;
13799;SDS011;6971;50.028;9.258;2023-05-07T20:28:19;3.50;;;3.20;;
13799;SDS011;6971;50.028;9.258;2023-05-07T20:33:19;3.30;;;3.00;;
13799;SDS011;6971;50.028;9.258;2023-05-07T20:38:20;6.63;;;3.40;;
13799;SDS011;6971;50.028;9.258;2023-05-07T20:43:20;4.70;;;3.70;;
13799;SDS011;6971;50.028;9.258;2023-05-07T20:48:20;4.77;;;4.37;;
13799;SDS011;6971;50.028;9.258;2023-05-07T20:53:21;5.53;;;5.03;;
13799;SDS011;6971;50.028;9.258;2023-05-07T20:58:22;5.53;;;4.93;;
13799;SDS011;6971;50.028;9.258;2023-05-07T21:03:25;5.50;;;5.00;;
13799;SDS011;6971;50.028;9.258;2023-05-07T21:08:26;5.03;;;4.30;;
13799;SDS011;6971;50.028;9.258;2023-05-07T21:13:26;4.80;;;4.37;;
13799;SDS011;6971;50.028;9.258;2023-05-07T21:18:27;4.73;;;4.33;;
13799;SDS011;6971;50.028;9.258;2023-05-07T21:23:29;7.10;;;5.17;;
13799;SDS011;6971;50.028;9.258;2023-05-07T21:28:30;8.53;;;5.90;;
13799;SDS011;6971;50.028;9.258;2023-05-07T21:33:30;5.27;;;4.80;;
13799;SDS011;6971;50.028;9.258;2023-05-07T21:38:30;6.10;;;4.77;;
13799;SDS011;6971;50.028;9.258;2023-05-07T21:43:31;5.27;;;4.87;;
13799;SDS011;6971;50.028;9.258;2023-05-07T21:48:33;4.80;;;4.23;;
13799;SDS011;6971;50.028;9.258;2023-05-07T21:53:34;5.30;;;4.90;;
13799;SDS011;6971;50.028;9.258;2023-05-07T21:58:34;6.27;;;4.47;;
13799;SDS011;6971;50.028;9.258;2023-05-07T22:03:35;6.43;;;4.87;;
13799;SDS011;6971;50.028;9.258;2023-05-07T22:08:35;5.63;;;5.13;;
13799;SDS011;6971;50.028;9.258;2023-05-07T22:13:35;6.20;;;5.70;;
13799;SDS011;6971;50.028;9.258;2023-05-07T22:18:36;7.60;;;6.90;;
13799;SDS011;6971;50.028;9.258;2023-05-07T22:23:36;9.30;;;7.57;;
13799;SDS011;6971;50.028;9.258;2023-05-07T22:28:36;9.27;;;8.27;;
13799;SDS011;6971;50.028;9.258;2023-05-07T22:33:37;9.50;;;7.97;;
13799;SDS011;6971;50.028;9.258;2023-05-07T22:38:37;8.03;;;7.33;;
13799;SDS011;6971;50.028;9.258;2023-05-07T22:43:37;8.40;;;7.50;;
13799;SDS011;6971;50.028;9.258;2023-05-07T22:48:38;8.50;;;7.70;;
13799;SDS011;6971;50.028;9.258;2023-05-07T22:53:38;8.67;;;7.87;;
13799;SDS011;6971;50.028;9.258;2023-05-07T22:58:39;8.50;;;7.63;;
13799;SDS011;6971;50.028;9.258;2023-05-07T23:03:39;9.17;;;7.27;;
13799;SDS011;6971;50.028;9.258;2023-05-07T23:08:40;10.37;;;8.00;;
13799;SDS011;6971;50.028;9.258;2023-05-07T23:13:40;9.03;;;6.97;;
13799;SDS011;6971;50.028;9.258;2023-05-07T23:18:40;8.10;;;7.30;;
13799;SDS011;6971;50.028;9.258;2023-05-07T23:23:41;8.97;;;6.77;;
13799;SDS011;6971;50.028;9.258;2023-05-07T23:28:41;9.60;;;7.53;;
13799;SDS011;6971;50.028;9.258;2023-05-07T23:33:42;8.37;;;7.57;;
13799;SDS011;6971;50.028;9.258;2023-05-07T23:38:42;8.47;;;7.60;;
13799;SDS011;6971;50.028;9.258;2023-05-07T23:43:42;8.53;;;7.73;;
13799;SDS011;6971;50.028;9.258;2023-05-07T23:48:43;8.77;;;7.97;;
13799;SDS011;6971;50.028;9.258;2023-05-07T23:53:43;12.63;;;7.83;;
13799;SDS011;6971;50.028;9.258;2023-05-07T23:58:43;8.30;;;7.60;;
